sensor_id;sensor_type;location;lat;lon;timestamp;temperature;humidity
81313;DHT22;70780;52.722;5.724;2024-01-15T17:45:08;2.40;76.90
81313;DHT22;70780;52.722;5.724;2024-01-15T17:47:54;2.30;77.20
81313;DHT22;70780;52.722;5.724;2024-01-15T17:50:42;2.30;77.70
81313;DHT22;70780;52.722;5.724;2024-01-15T17:53:28;2.20;77.90
81313;DHT22;70780;52.722;5.724;2024-01-15T17:56:17;2.10;77.90
81313;DHT22;70780;52.722;5.724;2024-01-15T17:59:02;2.00;77.90
81313;DHT22;70780;52.722;5.724;2024-01-15T18:01:50;2.00;77.70
81313;DHT22;70780;52.722;5.724;2024-01-15T18:04:35;2.00;77.60
81313;DHT22;70780;52.722;5.724;2024-01-15T18:07:20;1.90;77.50
81313;DHT22;70780;52.722;5.724;2024-01-15T18:10:06;1.90;77.30
81313;DHT22;70780;52.722;5.724;2024-01-15T18:12:51;1.80;77.20
81313;DHT22;70780;52.722;5.724;2024-01-15T18:15:35;1.80;77.20
81313;DHT22;70780;52.722;5.724;2024-01-15T18:18:25;1.70;77.10
81313;DHT22;70780;52.722;5.724;2024-01-15T18:21:10;1.70;77.10
81313;DHT22;70780;52.722;5.724;2024-01-15T18:23:54;1.70;77.10
81313;DHT22;70780;52.722;5.724;2024-01-15T18:26:41;1.60;77.40
81313;DHT22;70780;52.722;5.724;2024-01-15T18:29:28;1.60;77.60
81313;DHT22;70780;52.722;5.724;2024-01-15T18:32:16;1.70;77.90
81313;DHT22;70780;52.722;5.724;2024-01-15T18:35:03;1.70;78.30
81313;DHT22;70780;52.722;5.724;2024-01-15T18:37:48;1.70;78.70
81313;DHT22;70780;52.722;5.724;2024-01-15T18:40:35;1.70;79.10
81313;DHT22;70780;52.722;5.724;2024-01-15T18:43:19;1.60;79.80
81313;DHT22;70780;52.722;5.724;2024-01-15T18:46:05;1.60;79.80
81313;DHT22;70780;52.722;5.724;2024-01-15T18:48:50;1.60;80.00
81313;DHT22;70780;52.722;5.724;2024-01-15T18:51:38;1.50;80.30
81313;DHT22;70780;52.722;5.724;2024-01-15T18:54:23;1.50;80.40
81313;DHT22;70780;52.722;5.724;2024-01-15T18:57:09;1.50;80.50
81313;DHT22;70780;52.722;5.724;2024-01-15T18:59:54;1.50;80.80
81313;DHT22;70780;52.722;5.724;2024-01-15T19:02:41;1.50;81.00
81313;DHT22;70780;52.722;5.724;2024-01-15T19:05:26;1.50;81.20
81313;DHT22;70780;52.722;5.724;2024-01-15T19:39:22;1.40;81.30
81313;DHT22;70780;52.722;5.724;2024-01-15T19:42:10;1.40;81.40
81313;DHT22;70780;52.722;5.724;2024-01-15T19:44:55;1.40;81.50
81313;DHT22;70780;52.722;5.724;2024-01-15T19:47:39;1.40;81.40
81313;DHT22;70780;52.722;5.724;2024-01-15T19:50:25;1.40;81.30
81313;DHT22;70780;52.722;5.724;2024-01-15T19:53:09;1.40;81.30
81313;DHT22;70780;52.722;5.724;2024-01-15T19:55:58;1.40;81.30
81313;DHT22;70780;52.722;5.724;2024-01-15T19:58:43;1.40;81.30
81313;DHT22;70780;52.722;5.724;2024-01-15T20:01:31;1.40;81.40
81313;DHT22;70780;52.722;5.724;2024-01-15T20:04:16;1.40;81.50
81313;DHT22;70780;52.722;5.724;2024-01-15T20:07:02;1.40;81.60
81313;DHT22;70780;52.722;5.724;2024-01-15T20:09:46;1.40;81.80
81313;DHT22;70780;52.722;5.724;2024-01-15T20:12:33;2.50;84.40
81313;DHT22;70780;52.722;5.724;2024-01-15T20:15:18;5.50;77.10
81313;DHT22;70780;52.722;5.724;2024-01-15T20:18:03;8.00;68.70
81313;DHT22;70780;52.722;5.724;2024-01-15T20:20:47;10.00;67.50
81313;DHT22;70780;52.722;5.724;2024-01-15T20:23:33;11.30;64.40
81313;DHT22;70780;52.722;5.724;2024-01-15T20:26:18;12.30;62.10
81313;DHT22;70780;52.722;5.724;2024-01-15T20:29:08;12.70;55.10
81313;DHT22;70780;52.722;5.724;2024-01-15T20:31:55;12.10;55.10
81313;DHT22;70780;52.722;5.724;2024-01-15T20:34:40;11.90;55.60
81313;DHT22;70780;52.722;5.724;2024-01-15T20:37:24;11.70;54.50
81313;DHT22;70780;52.722;5.724;2024-01-15T20:40:10;11.40;54.10
81313;DHT22;70780;52.722;5.724;2024-01-15T20:42:56;11.10;54.20
81313;DHT22;70780;52.722;5.724;2024-01-15T20:45:43;10.90;54.20
81313;DHT22;70780;52.722;5.724;2024-01-15T20:48:28;10.60;54.60
81313;DHT22;70780;52.722;5.724;2024-01-15T20:51:13;10.50;54.70
81313;DHT22;70780;52.722;5.724;2024-01-15T20:53:57;10.30;54.60
81313;DHT22;70780;52.722;5.724;2024-01-15T20:56:42;10.10;54.90
81313;DHT22;70780;52.722;5.724;2024-01-15T20:59:27;10.00;54.80
81313;DHT22;70780;52.722;5.724;2024-01-15T21:02:14;9.80;55.00
81313;DHT22;70780;52.722;5.724;2024-01-15T21:05:01;9.70;55.10
81313;DHT22;70780;52.722;5.724;2024-01-15T21:07:50;9.60;55.30
81313;DHT22;70780;52.722;5.724;2024-01-15T21:10:35;9.50;55.50
81313;DHT22;70780;52.722;5.724;2024-01-15T21:13:20;9.60;55.50
81313;DHT22;70780;52.722;5.724;2024-01-15T21:16:07;9.80;55.30
81313;DHT22;70780;52.722;5.724;2024-01-15T21:18:55;10.00;54.70
81313;DHT22;70780;52.722;5.724;2024-01-15T21:21:40;9.80;54.60
81313;DHT22;70780;52.722;5.724;2024-01-15T21:24:29;9.80;55.00
81313;DHT22;70780;52.722;5.724;2024-01-15T21:27:14;10.00;54.70
81313;DHT22;70780;52.722;5.724;2024-01-15T21:29:59;9.70;55.20
81313;DHT22;70780;52.722;5.724;2024-01-15T21:32:43;9.70;54.90
81313;DHT22;70780;52.722;5.724;2024-01-15T21:35:31;9.60;55.00
81313;DHT22;70780;52.722;5.724;2024-01-15T21:38:20;9.50;55.20
81313;DHT22;70780;52.722;5.724;2024-01-15T21:41:06;9.40;55.50
81313;DHT22;70780;52.722;5.724;2024-01-15T21:43:51;9.20;55.80
81313;DHT22;70780;52.722;5.724;2024-01-15T21:46:38;9.20;56.20
81313;DHT22;70780;52.722;5.724;2024-01-15T21:49:23;9.30;56.50
81313;DHT22;70780;52.722;5.724;2024-01-15T21:52:10;9.40;57.00
81313;DHT22;70780;52.722;5.724;2024-01-15T21:54:55;9.70;56.50
